Time;durP1;ratioP1;P1;durP2;ratioP2;P2;SDS_P1;SDS_P2;PMS_P1;PMS_P2;Temp;Humidity;BMP_temperature;BMP_pressure;BME280_temperature;BME280_humidity;BME280_pressure;Samples;Min_cycle;Max_cycle;Signal;HPM_P1;HPM_P2
2022/10/21 00:02:07;;;;;;;42.28;25.23;;;12.00;99.90;;;;;;6143121;23;20462;-71
2022/10/21 00:04:33;;;;;;;39.58;24.33;;;12.00;99.90;;;;;;6150194;23;20022;-71
2022/10/21 00:06:59;;;;;;;39.58;23.23;;;12.00;99.90;;;;;;6148423;23;20026;-71
2022/10/21 00:09:24;;;;;;;47.55;26.33;;;12.00;99.90;;;;;;6146434;23;20018;-71
2022/10/21 00:11:50;;;;;;;41.88;24.48;;;12.00;99.90;;;;;;6148584;23;20022;-71
2022/10/21 00:14:15;;;;;;;44.97;25.70;;;12.00;99.90;;;;;;6121274;23;20021;-71
2022/10/21 00:16:41;;;;;;;41.83;25.60;;;12.00;99.90;;;;;;6146214;23;20466;-71
2022/10/21 00:19:07;;;;;;;44.42;25.65;;;11.90;99.90;;;;;;6149148;23;20021;-72
2022/10/21 00:21:36;;;;;;;42.60;24.90;;;12.00;99.90;;;;;;6122214;23;20014;-71
2022/10/21 00:24:05;;;;;;;42.13;24.85;;;12.00;99.90;;;;;;6148091;23;20056;-72
2022/10/21 00:26:31;;;;;;;44.28;25.70;;;11.90;99.90;;;;;;6150257;23;20032;-72
2022/10/21 00:28:57;;;;;;;47.45;26.75;;;12.00;99.90;;;;;;6149223;23;20020;-70
2022/10/21 00:31:24;;;;;;;44.90;25.27;;;12.00;99.90;;;;;;6119575;23;20472;-72
2022/10/21 00:33:50;;;;;;;43.88;26.00;;;12.00;99.90;;;;;;6148462;23;20033;-71
2022/10/21 00:36:15;;;;;;;48.80;24.35;;;12.00;99.90;;;;;;6148866;23;20021;-72
2022/10/21 00:38:43;;;;;;;46.70;25.17;;;11.90;99.90;;;;;;6123504;23;20040;-71
2022/10/21 00:41:10;;;;;;;47.92;26.25;;;11.90;99.90;;;;;;6143491;23;20025;-70
2022/10/21 00:44:03;;;;;;;45.72;25.23;;;11.90;99.90;;;;;;6120541;23;20497;-71
2022/10/21 00:46:47;;;;;;;43.33;25.10;;;11.90;99.90;;;;;;6121712;23;20399;-72
2022/10/21 00:49:20;;;;;;;46.35;25.42;;;11.80;99.90;;;;;;6120745;23;20029;-71
2022/10/21 00:51:48;;;;;;;49.72;25.25;;;11.80;99.90;;;;;;6148247;23;20462;-71
2022/10/21 00:54:15;;;;;;;43.95;25.38;;;11.80;99.90;;;;;;6147723;23;20022;-70
2022/10/21 00:56:44;;;;;;;45.35;26.48;;;11.80;99.90;;;;;;6137242;23;20080;-71
2022/10/21 00:59:10;;;;;;;48.42;25.85;;;11.80;99.90;;;;;;6146949;23;20361;-71
2022/10/21 01:01:36;;;;;;;52.88;25.75;;;11.70;99.90;;;;;;6119519;23;20021;-71
2022/10/21 01:04:04;;;;;;;47.97;26.00;;;11.70;99.90;;;;;;6147660;23;20021;-72
2022/10/21 01:06:31;;;;;;;43.92;25.50;;;11.70;99.90;;;;;;6148139;23;20021;-70
2022/10/21 01:08:58;;;;;;;49.40;25.70;;;11.70;99.90;;;;;;6147980;23;20347;-72
2022/10/21 01:11:25;;;;;;;46.38;26.20;;;11.70;99.90;;;;;;6121202;23;20477;-70
2022/10/21 01:14:17;;;;;;;49.30;26.35;;;11.70;99.90;;;;;;6148395;23;20031;-70
2022/10/21 01:16:45;;;;;;;50.42;27.15;;;11.60;99.90;;;;;;6118046;23;20036;-71
2022/10/21 01:19:47;;;;;;;50.13;26.00;;;11.60;99.90;;;;;;6147755;23;20470;-71
2022/10/21 01:22:49;;;;;;;54.08;26.20;;;11.60;99.90;;;;;;5976807;23;20035;-72
2022/10/21 01:25:28;;;;;;;55.43;26.67;;;11.50;99.90;;;;;;6148160;23;20025;-71
2022/10/21 01:28:04;;;;;;;50.63;25.90;;;11.50;99.90;;;;;;6122806;23;20121;-71
2022/10/21 01:30:42;;;;;;;68.15;26.83;;;11.50;99.90;;;;;;6146913;23;20026;-70
2022/10/21 01:33:30;;;;;;;51.13;27.42;;;11.50;99.90;;;;;;6118903;23;20031;-72
2022/10/21 01:36:10;;;;;;;49.72;26.50;;;11.50;99.90;;;;;;6122706;23;20069;-72
2022/10/21 01:38:50;;;;;;;47.03;25.92;;;11.50;99.90;;;;;;6148941;23;20021;-71
2022/10/21 01:41:35;;;;;;;50.83;25.45;;;11.50;99.90;;;;;;6142988;23;20421;-71
2022/10/21 01:44:19;;;;;;;54.83;27.35;;;11.60;99.90;;;;;;6148439;23;20030;-71
2022/10/21 01:46:51;;;;;;;51.85;28.30;;;11.50;99.90;;;;;;6146493;23;20367;-72
2022/10/21 01:49:24;;;;;;;52.85;27.67;;;11.60;99.90;;;;;;6121559;23;20056;-71
2022/10/21 01:51:52;;;;;;;54.38;27.92;;;11.60;99.90;;;;;;6121675;23;20466;-70
2022/10/21 01:54:29;;;;;;;55.90;28.85;;;11.70;99.90;;;;;;6120558;23;20084;-70
2022/10/21 01:56:57;;;;;;;58.67;29.77;;;11.70;99.90;;;;;;6148104;23;20041;-71
2022/10/21 01:59:25;;;;;;;53.28;28.05;;;11.70;99.90;;;;;;6121689;23;20010;-72
2022/10/21 02:01:53;;;;;;;56.72;28.85;;;11.80;99.90;;;;;;6120101;23;20481;-70
2022/10/21 02:04:23;;;;;;;62.92;30.80;;;11.80;99.90;;;;;;6146924;23;20096;-70
2022/10/21 02:06:48;;;;;;;58.58;30.85;;;11.90;99.90;;;;;;6120645;23;20096;-70
2022/10/21 02:09:14;;;;;;;54.95;29.27;;;11.90;99.90;;;;;;6120410;23;20025;-71
2022/10/21 02:11:42;;;;;;;55.08;29.27;;;11.90;99.90;;;;;;6146541;23;20142;-71
2022/10/21 02:14:14;;;;;;;59.20;29.52;;;12.00;99.90;;;;;;6144040;23;20498;-71
2022/10/21 02:16:40;;;;;;;57.50;29.92;;;12.00;99.90;;;;;;6149990;23;20075;-71
2022/10/21 02:19:17;;;;;;;56.63;29.70;;;12.00;99.90;;;;;;6153459;23;20096;-71
2022/10/21 02:21:46;;;;;;;54.65;29.88;;;12.10;99.90;;;;;;6147977;23;20492;-71
2022/10/21 02:24:25;;;;;;;60.95;30.35;;;12.10;99.90;;;;;;6116459;23;20021;-72
2022/10/21 02:26:51;;;;;;;58.08;30.27;;;12.20;99.90;;;;;;6149159;23;20435;-71
2022/10/21 02:29:25;;;;;;;54.45;30.80;;;12.30;99.90;;;;;;6151784;23;20210;-71
2022/10/21 02:32:09;;;;;;;55.20;31.20;;;12.30;99.90;;;;;;6121295;23;20462;-71
2022/10/21 02:35:02;;;;;;;56.83;31.05;;;12.40;99.90;;;;;;6121771;23;20029;-72
2022/10/21 02:37:39;;;;;;;59.92;30.83;;;12.50;99.90;;;;;;6147515;23;20426;-70
2022/10/21 02:40:33;;;;;;;54.42;30.58;;;12.60;99.90;;;;;;6121390;23;20053;-71
2022/10/21 02:43:09;;;;;;;53.70;29.40;;;12.70;99.90;;;;;;6148515;23;20021;-70
2022/10/21 02:45:34;;;;;;;54.42;30.20;;;12.70;99.90;;;;;;6119582;23;20737;-71
2022/10/21 02:48:02;;;;;;;57.20;30.67;;;12.70;99.90;;;;;;6148149;23;20028;-71
2022/10/21 02:50:31;;;;;;;54.95;31.00;;;12.70;99.90;;;;;;6146431;23;20024;-71
2022/10/21 02:52:57;;;;;;;53.30;30.73;;;12.80;99.90;;;;;;6146450;23;20025;-71
2022/10/21 02:55:22;;;;;;;56.78;29.58;;;12.80;99.90;;;;;;6144719;23;20021;-71
2022/10/21 02:57:48;;;;;;;55.10;31.17;;;12.80;99.90;;;;;;6148838;23;20092;-70
2022/10/21 03:00:14;;;;;;;59.83;29.95;;;12.80;99.90;;;;;;6147439;23;20018;-72
2022/10/21 03:02:41;;;;;;;59.33;29.92;;;12.80;99.90;;;;;;6146405;23;20051;-72
2022/10/21 03:05:08;;;;;;;62.08;31.52;;;12.80;99.90;;;;;;6117997;23;20111;-71
2022/10/21 03:07:34;;;;;;;62.30;32.30;;;12.80;99.90;;;;;;6145598;23;20013;-71
2022/10/21 03:10:00;;;;;;;58.85;30.75;;;12.80;99.90;;;;;;6148528;23;20108;-70
2022/10/21 03:12:26;;;;;;;60.95;31.80;;;12.80;99.90;;;;;;6146932;23;20252;-71
2022/10/21 03:14:52;;;;;;;77.30;34.38;;;12.80;99.90;;;;;;6146885;23;20029;-70
2022/10/21 03:17:17;;;;;;;87.95;34.20;;;12.80;99.90;;;;;;6146600;23;20357;-70
2022/10/21 03:19:43;;;;;;;68.47;32.75;;;12.80;99.90;;;;;;6147393;23;20021;-70
2022/10/21 03:22:09;;;;;;;70.13;33.80;;;12.90;99.90;;;;;;6120949;23;20022;-71
2022/10/21 03:24:34;;;;;;;68.03;31.20;;;12.80;99.90;;;;;;6149840;23;20018;-71
2022/10/21 03:27:00;;;;;;;60.85;30.95;;;12.90;99.90;;;;;;6146845;23;20473;-71
2022/10/21 03:29:26;;;;;;;64.88;31.80;;;12.90;99.90;;;;;;6123149;23;20122;-71
2022/10/21 03:31:52;;;;;;;63.95;31.27;;;12.90;99.90;;;;;;6148395;23;20045;-70
2022/10/21 03:34:17;;;;;;;65.18;31.73;;;13.00;99.90;;;;;;6147728;23;20017;-72
2022/10/21 03:36:43;;;;;;;64.05;31.10;;;13.00;99.90;;;;;;6149738;23;20112;-71
2022/10/21 03:39:10;;;;;;;65.72;30.02;;;13.00;99.90;;;;;;6145879;23;20017;-72
2022/10/21 03:41:35;;;;;;;62.75;32.03;;;13.00;99.90;;;;;;6122406;23;20399;-71
2022/10/21 03:44:01;;;;;;;59.88;30.90;;;13.10;99.90;;;;;;6149859;23;20049;-73
2022/10/21 03:46:27;;;;;;;61.28;29.50;;;13.00;99.90;;;;;;6148146;23;20052;-72
2022/10/21 03:48:52;;;;;;;61.13;31.17;;;13.10;99.90;;;;;;6123250;23;20100;-71
2022/10/21 03:51:18;;;;;;;58.65;29.55;;;13.10;99.90;;;;;;6122573;23;20091;-71
2022/10/21 03:53:44;;;;;;;58.97;29.83;;;13.10;99.90;;;;;;6117291;23;20026;-70
2022/10/21 03:56:10;;;;;;;61.78;30.45;;;13.10;99.90;;;;;;6149599;23;20021;-71
2022/10/21 03:58:36;;;;;;;57.50;29.45;;;13.10;99.90;;;;;;6148058;23;20354;-72
2022/10/21 04:01:01;;;;;;;59.45;29.10;;;13.10;99.90;;;;;;6116023;23;20021;-72
2022/10/21 04:03:27;;;;;;;56.55;28.95;;;13.10;99.90;;;;;;6150562;23;20017;-71
2022/10/21 04:05:54;;;;;;;53.22;27.05;;;13.20;99.90;;;;;;6121224;23;20068;-71
2022/10/21 04:08:19;;;;;;;56.50;27.83;;;13.30;99.90;;;;;;6147591;23;20088;-71
2022/10/21 04:10:46;;;;;;;56.35;27.77;;;13.30;99.90;;;;;;6150326;23;20374;-70
2022/10/21 04:13:11;;;;;;;57.58;27.38;;;13.30;99.90;;;;;;6147431;23;20018;-72
2022/10/21 04:15:37;;;;;;;56.75;28.13;;;13.30;99.90;;;;;;6146817;23;20420;-71
2022/10/21 04:18:07;;;;;;;51.53;27.77;;;13.30;99.90;;;;;;6148354;23;20021;-72
2022/10/21 04:20:33;;;;;;;53.20;27.60;;;13.30;99.90;;;;;;6122606;23;20509;-71
2022/10/21 04:22:58;;;;;;;55.05;27.40;;;13.30;99.90;;;;;;6121603;23;20104;-71
2022/10/21 04:25:24;;;;;;;59.50;28.98;;;13.30;99.90;;;;;;6147788;23;20023;-71
2022/10/21 04:27:50;;;;;;;58.80;28.08;;;13.40;99.90;;;;;;6149552;23;20401;-70
2022/10/21 04:30:15;;;;;;;57.83;27.83;;;13.30;99.90;;;;;;6146792;23;20501;-71
2022/10/21 04:32:41;;;;;;;57.10;26.83;;;13.40;99.90;;;;;;6122826;23;20366;-71
2022/10/21 04:35:07;;;;;;;56.30;28.15;;;13.40;99.90;;;;;;6145879;23;20361;-72
2022/10/21 04:37:34;;;;;;;57.63;28.33;;;13.40;99.90;;;;;;6148596;23;20025;-72
2022/10/21 04:39:59;;;;;;;58.83;29.52;;;13.40;99.90;;;;;;6121949;23;20316;-73
2022/10/21 04:42:25;;;;;;;57.25;29.00;;;13.30;99.90;;;;;;6125610;23;20080;-73
2022/10/21 04:44:51;;;;;;;62.55;30.13;;;13.30;99.90;;;;;;6149434;23;20288;-71
2022/10/21 04:47:16;;;;;;;54.90;28.40;;;13.30;99.90;;;;;;6145330;23;20414;-71
2022/10/21 04:49:42;;;;;;;58.65;29.60;;;13.30;99.90;;;;;;6122743;23;20026;-70
2022/10/21 04:52:08;;;;;;;58.70;28.80;;;13.30;99.90;;;;;;6149199;23;20058;-71
2022/10/21 04:54:33;;;;;;;57.60;29.17;;;13.30;99.90;;;;;;6147849;23;20096;-71
2022/10/21 04:56:59;;;;;;;56.58;29.77;;;13.30;99.90;;;;;;6148991;23;20025;-71
2022/10/21 04:59:25;;;;;;;57.13;28.27;;;13.30;99.90;;;;;;6118320;23;20508;-71
2022/10/21 05:01:50;;;;;;;61.47;29.20;;;13.30;99.90;;;;;;6121021;23;20370;-70
2022/10/21 05:04:16;;;;;;;61.47;30.88;;;13.30;99.90;;;;;;6148190;23;20032;-72
2022/10/21 05:06:41;;;;;;;59.22;28.73;;;13.20;99.90;;;;;;6122307;23;20022;-72
2022/10/21 05:09:08;;;;;;;61.08;31.00;;;13.20;99.90;;;;;;6121304;23;20131;-71
2022/10/21 05:11:37;;;;;;;61.17;30.75;;;13.20;99.90;;;;;;6146212;23;20093;-71
2022/10/21 05:14:03;;;;;;;68.50;30.52;;;13.20;99.90;;;;;;6148440;23;20021;-71
2022/10/21 05:16:28;;;;;;;64.13;31.17;;;13.10;99.90;;;;;;6147927;23;20090;-71
2022/10/21 05:18:54;;;;;;;60.03;33.97;;;13.10;99.90;;;;;;6130813;23;20034;-72
2022/10/21 05:21:20;;;;;;;60.35;34.85;;;13.10;99.90;;;;;;6145241;23;20025;-72
2022/10/21 05:23:45;;;;;;;69.28;35.17;;;13.00;99.90;;;;;;6148432;23;20025;-71
2022/10/21 05:26:11;;;;;;;68.07;36.72;;;13.00;99.90;;;;;;6145442;23;20042;-71
2022/10/21 05:28:38;;;;;;;70.75;36.58;;;13.00;99.90;;;;;;6147641;23;20237;-70
2022/10/21 05:31:04;;;;;;;65.90;35.60;;;13.00;99.90;;;;;;6121103;23;20052;-71
2022/10/21 05:33:29;;;;;;;72.78;35.38;;;13.00;99.90;;;;;;6120852;23;20017;-72
2022/10/21 05:36:03;;;;;;;67.38;32.35;;;12.90;99.90;;;;;;6148543;23;20069;-72
2022/10/21 05:38:30;;;;;;;78.40;41.10;;;12.90;99.90;;;;;;6146988;23;20028;-71
2022/10/21 05:40:56;;;;;;;73.32;36.83;;;12.90;99.90;;;;;;6148360;23;20032;-71
2022/10/21 05:43:23;;;;;;;75.53;36.65;;;12.80;99.90;;;;;;6119712;23;20021;-72
2022/10/21 05:45:48;;;;;;;77.88;34.38;;;12.80;99.90;;;;;;6145420;23;20071;-71
2022/10/21 05:48:17;;;;;;;67.30;32.38;;;12.80;99.90;;;;;;6117482;23;20026;-71
2022/10/21 05:50:44;;;;;;;70.82;33.95;;;12.80;99.90;;;;;;6148085;23;20021;-70
2022/10/21 05:53:10;;;;;;;72.40;34.30;;;12.80;99.90;;;;;;6119703;23;20025;-71
2022/10/21 05:55:35;;;;;;;76.97;33.40;;;12.70;99.90;;;;;;6147755;23;20017;-71
2022/10/21 05:58:01;;;;;;;72.68;33.28;;;12.70;99.90;;;;;;6147662;23;20457;-73
2022/10/21 06:00:27;;;;;;;79.10;34.15;;;12.70;99.90;;;;;;6145271;23;20045;-72
2022/10/21 06:02:52;;;;;;;72.63;33.63;;;12.60;99.90;;;;;;6145698;23;20022;-71
2022/10/21 06:05:19;;;;;;;81.15;36.03;;;12.70;99.90;;;;;;6147062;23;20014;-72
2022/10/21 06:07:45;;;;;;;85.85;38.08;;;12.60;99.90;;;;;;6119920;23;20029;-72
2022/10/21 06:10:11;;;;;;;83.80;34.53;;;12.60;99.90;;;;;;6148042;23;20054;-72
2022/10/21 06:12:37;;;;;;;80.55;35.25;;;12.50;99.90;;;;;;6121950;23;20112;-71
2022/10/21 06:15:04;;;;;;;83.40;36.90;;;12.60;99.90;;;;;;6119468;23;20322;-71
2022/10/21 06:17:29;;;;;;;80.85;34.25;;;12.50;99.90;;;;;;6147678;23;20073;-71
2022/10/21 06:19:55;;;;;;;78.85;37.17;;;12.50;99.90;;;;;;6122317;23;20496;-71
2022/10/21 06:22:21;;;;;;;69.35;33.90;;;12.50;99.90;;;;;;6145145;23;20152;-71
2022/10/21 06:24:46;;;;;;;79.50;35.33;;;12.50;99.90;;;;;;6119738;23;20088;-71
2022/10/21 06:27:12;;;;;;;89.07;35.88;;;12.50;99.90;;;;;;6146969;23;20018;-71
2022/10/21 06:29:38;;;;;;;82.45;36.35;;;12.50;99.90;;;;;;6146996;23;20081;-72
2022/10/21 06:32:07;;;;;;;87.10;39.55;;;12.50;99.90;;;;;;6147244;23;20285;-73
2022/10/21 06:34:33;;;;;;;88.57;36.00;;;12.50;99.90;;;;;;6145297;23;20403;-71
2022/10/21 06:36:58;;;;;;;77.15;33.92;;;12.50;99.90;;;;;;6120855;23;20036;-71
2022/10/21 06:39:24;;;;;;;75.25;33.40;;;12.50;99.90;;;;;;6144974;23;20025;-71
2022/10/21 06:41:49;;;;;;;82.55;35.47;;;12.60;99.90;;;;;;6121211;23;20036;-71
2022/10/21 06:44:15;;;;;;;89.32;37.92;;;12.60;99.90;;;;;;6121238;23;20101;-70
2022/10/21 06:46:41;;;;;;;85.75;35.50;;;12.60;99.90;;;;;;6117529;23;20395;-71
2022/10/21 06:49:06;;;;;;;75.63;33.72;;;12.70;99.90;;;;;;6118947;23;20105;-71
2022/10/21 06:51:32;;;;;;;85.38;36.25;;;12.70;99.90;;;;;;6118023;23;20349;-72
2022/10/21 06:53:58;;;;;;;75.07;33.30;;;12.70;99.90;;;;;;6120427;23;20028;-72
2022/10/21 06:56:25;;;;;;;85.97;36.38;;;12.70;99.90;;;;;;6120779;23;20017;-71
2022/10/21 06:58:51;;;;;;;76.78;34.47;;;12.70;99.90;;;;;;6150420;23;20060;-71
2022/10/21 07:01:23;;;;;;;78.70;34.50;;;12.70;99.90;;;;;;6147200;23;20076;-70
2022/10/21 07:03:49;;;;;;;75.65;33.40;;;12.70;99.90;;;;;;6145452;23;20029;-72
2022/10/21 07:06:15;;;;;;;77.65;33.78;;;12.70;99.90;;;;;;6148732;23;20532;-71
2022/10/21 07:08:42;;;;;;;79.78;32.55;;;12.80;99.90;;;;;;6149862;23;20021;-71
2022/10/21 07:11:09;;;;;;;82.50;33.95;;;12.80;99.90;;;;;;6148165;23;20017;-71
2022/10/21 07:13:37;;;;;;;73.78;33.67;;;12.80;99.90;;;;;;6118895;23;20037;-71
2022/10/21 07:16:13;;;;;;;78.10;34.20;;;12.80;99.90;;;;;;6146905;23;20026;-71
2022/10/21 07:18:39;;;;;;;78.25;34.30;;;12.80;99.90;;;;;;6149332;23;20462;-71
2022/10/21 07:21:07;;;;;;;71.50;32.35;;;12.80;99.90;;;;;;6147115;23;20065;-71
2022/10/21 07:23:33;;;;;;;70.97;33.65;;;12.80;99.90;;;;;;6123827;23;20526;-71
2022/10/21 07:26:01;;;;;;;67.60;31.85;;;12.80;99.90;;;;;;6148486;23;20052;-71
2022/10/21 07:28:26;;;;;;;77.38;32.35;;;12.80;99.90;;;;;;6148241;23;20525;-71
2022/10/21 07:30:52;;;;;;;70.90;31.15;;;12.80;99.90;;;;;;6149092;23;20041;-72
2022/10/21 07:33:18;;;;;;;69.70;31.23;;;12.90;99.90;;;;;;6146682;23;20350;-72
2022/10/21 07:35:43;;;;;;;64.68;30.90;;;12.90;99.90;;;;;;6147196;23;20349;-71
2022/10/21 07:38:11;;;;;;;64.95;31.20;;;13.00;99.90;;;;;;6147523;23;20405;-71
2022/10/21 07:40:41;;;;;;;59.15;28.92;;;12.90;99.90;;;;;;6116551;23;20041;-72
2022/10/21 07:43:08;;;;;;;64.07;30.48;;;13.10;99.90;;;;;;6123851;23;20030;-72
2022/10/21 07:45:39;;;;;;;62.38;30.15;;;13.10;99.90;;;;;;6121993;23;20464;-71
2022/10/21 07:48:07;;;;;;;63.75;31.67;;;13.10;99.90;;;;;;6148562;23;20056;-72
2022/10/21 07:50:33;;;;;;;62.60;30.15;;;13.20;99.90;;;;;;6149340;23;20453;-71
2022/10/21 07:53:00;;;;;;;56.17;28.95;;;13.20;99.90;;;;;;6147180;23;20025;-70
2022/10/21 07:55:25;;;;;;;66.57;30.83;;;13.20;99.90;;;;;;6148683;23;20022;-71
2022/10/21 07:57:51;;;;;;;60.65;30.13;;;13.20;99.90;;;;;;6149949;23;20022;-70
2022/10/21 08:00:16;;;;;;;60.88;30.15;;;13.30;99.90;;;;;;6115644;23;20041;-73
2022/10/21 08:02:42;;;;;;;55.80;29.23;;;13.30;99.90;;;;;;6139201;23;20021;-74
2022/10/21 08:05:08;;;;;;;52.15;27.98;;;13.30;99.90;;;;;;6120357;23;20025;-73
2022/10/21 08:07:34;;;;;;;55.30;29.10;;;13.20;99.90;;;;;;6148339;23;20096;-73
2022/10/21 08:10:00;;;;;;;52.92;28.83;;;13.30;99.90;;;;;;6149444;23;20018;-74
2022/10/21 08:12:25;;;;;;;54.58;27.42;;;13.30;99.90;;;;;;6117725;23;20349;-74
2022/10/21 08:14:51;;;;;;;55.70;27.88;;;13.30;99.90;;;;;;6145774;23;20021;-73
2022/10/21 08:17:17;;;;;;;51.50;27.48;;;13.30;99.90;;;;;;6121457;23;20600;-75
2022/10/21 08:19:45;;;;;;;49.63;27.60;;;13.30;99.90;;;;;;6145055;23;20280;-73
2022/10/21 08:22:13;;;;;;;51.53;27.10;;;13.40;99.90;;;;;;6119981;23;20037;-75
2022/10/21 08:24:44;;;;;;;52.42;27.25;;;13.30;99.90;;;;;;6123396;23;20033;-74
2022/10/21 08:27:13;;;;;;;57.03;27.80;;;13.40;99.90;;;;;;6147999;23;20029;-73
2022/10/21 08:29:39;;;;;;;53.60;26.60;;;13.40;99.90;;;;;;6120212;23;20100;-74
2022/10/21 08:32:05;;;;;;;50.08;26.45;;;13.50;99.90;;;;;;6144898;23;20095;-73
2022/10/21 08:34:33;;;;;;;48.83;25.08;;;13.50;99.90;;;;;;6119487;23;20013;-73
2022/10/21 08:36:59;;;;;;;51.75;27.33;;;13.60;99.90;;;;;;6147592;23;20017;-74
2022/10/21 08:39:25;;;;;;;49.10;26.92;;;13.60;99.90;;;;;;6146093;23;20025;-75
2022/10/21 08:42:09;;;;;;;47.10;25.92;;;13.60;99.90;;;;;;6119985;23;20129;-75
2022/10/21 08:44:46;;;;;;;49.35;27.02;;;13.70;99.90;;;;;;6118474;23;20029;-74
2022/10/21 08:47:30;;;;;;;50.72;28.55;;;13.60;99.90;;;;;;6118652;23;20505;-74
2022/10/21 08:50:00;;;;;;;44.53;25.42;;;13.80;99.90;;;;;;6147294;23;20425;-74
2022/10/21 08:53:07;;;;;;;48.50;25.30;;;13.80;99.90;;;;;;6145505;23;20027;-74
2022/10/21 08:55:35;;;;;;;42.85;25.08;;;13.90;99.90;;;;;;6145883;23;20033;-74
2022/10/21 08:58:04;;;;;;;48.15;26.92;;;13.90;99.90;;;;;;6123050;23;20021;-75
2022/10/21 09:00:48;;;;;;;47.00;28.60;;;13.90;99.90;;;;;;6120692;23;20071;-74
2022/10/21 09:03:55;;;;;;;43.83;25.40;;;14.00;99.90;;;;;;6139709;23;20030;-74
2022/10/21 09:06:54;;;;;;;41.50;23.48;;;14.00;99.90;;;;;;6144361;23;20021;-75
2022/10/21 09:09:31;;;;;;;39.95;22.52;;;14.10;99.90;;;;;;6145716;23;20026;-74
2022/10/21 09:12:05;;;;;;;34.95;21.95;;;14.10;99.90;;;;;;6148052;23;20022;-74
2022/10/21 09:14:49;;;;;;;40.25;22.05;;;14.10;99.90;;;;;;6146719;23;20420;-75
2022/10/21 09:17:36;;;;;;;40.50;22.73;;;14.10;99.90;;;;;;6128680;23;20112;-74
2022/10/21 09:20:13;;;;;;;32.72;20.05;;;14.20;99.90;;;;;;6146576;23;20088;-74
2022/10/21 09:23:00;;;;;;;38.83;21.33;;;14.20;99.90;;;;;;6145902;23;20071;-75
2022/10/21 09:25:42;;;;;;;37.10;21.13;;;14.20;99.90;;;;;;6144224;23;20037;-75
2022/10/21 09:28:11;;;;;;;37.50;21.20;;;14.30;99.90;;;;;;6122695;23;20033;-74
2022/10/21 09:30:39;;;;;;;34.72;19.08;;;14.30;99.90;;;;;;6133526;23;20021;-76
2022/10/21 09:33:29;;;;;;;33.42;21.63;;;14.30;99.90;;;;;;6146783;23;20097;-75
2022/10/21 09:36:10;;;;;;;32.90;19.75;;;14.40;99.90;;;;;;6147585;23;20023;-73
2022/10/21 09:38:53;;;;;;;34.50;20.35;;;14.40;99.90;;;;;;6130310;23;20030;-74
2022/10/21 09:41:32;;;;;;;34.42;20.23;;;14.40;99.90;;;;;;6116994;23;20065;-73
2022/10/21 09:44:18;;;;;;;33.15;20.13;;;14.40;99.90;;;;;;6142856;23;20028;-72
2022/10/21 09:46:45;;;;;;;35.83;19.92;;;14.50;99.90;;;;;;6142728;23;20022;-73
2022/10/21 09:49:25;;;;;;;32.05;18.73;;;14.50;99.90;;;;;;6145794;23;20426;-73
2022/10/21 09:51:52;;;;;;;28.45;17.58;;;14.50;99.90;;;;;;6147175;23;20469;-72
2022/10/21 09:54:24;;;;;;;30.27;17.52;;;14.50;99.90;;;;;;6148360;23;20027;-73
2022/10/21 09:57:08;;;;;;;26.33;17.23;;;14.50;99.90;;;;;;6148924;23;20021;-72
2022/10/21 09:59:36;;;;;;;31.63;18.80;;;14.60;99.90;;;;;;6147727;23;20021;-72
2022/10/21 10:02:06;;;;;;;29.05;16.98;;;14.60;99.90;;;;;;6147282;23;20029;-72
2022/10/21 10:04:33;;;;;;;28.63;18.23;;;14.60;99.90;;;;;;6149424;23;20028;-73
2022/10/21 10:07:02;;;;;;;27.65;17.33;;;14.60;99.90;;;;;;6115594;23;20108;-72
2022/10/21 10:09:33;;;;;;;30.15;16.77;;;14.60;99.90;;;;;;6146951;23;20022;-72
2022/10/21 10:12:26;;;;;;;26.17;16.98;;;14.60;99.90;;;;;;6147733;23;20025;-73
2022/10/21 10:14:52;;;;;;;26.83;16.50;;;14.70;99.90;;;;;;6143883;23;20096;-72
2022/10/21 10:17:32;;;;;;;25.20;16.20;;;14.70;99.90;;;;;;6147771;23;20092;-72
2022/10/21 10:20:04;;;;;;;28.08;16.02;;;14.70;99.90;;;;;;6149842;23;20540;-73
2022/10/21 10:22:41;;;;;;;24.30;15.60;;;14.70;99.90;;;;;;6120950;23;20013;-74
2022/10/21 10:25:35;;;;;;;;;;;;;;;;;;;;;
2022/10/21 10:28:08;;;;;;;27.50;16.17;;;14.80;99.90;;;;;;6094376;23;20025;-74
2022/10/21 10:30:40;;;;;;;30.88;16.00;;;14.80;99.90;;;;;;6148703;23;20644;-73
2022/10/21 10:33:15;;;;;;;23.88;15.70;;;14.80;99.90;;;;;;6123897;23;20405;-73
2022/10/21 10:35:50;;;;;;;23.88;14.98;;;14.80;99.90;;;;;;6151270;23;20049;-73
2022/10/21 10:38:25;;;;;;;34.05;19.20;;;14.80;99.90;;;;;;6151019;23;20021;-72
2022/10/21 10:40:51;;;;;;;22.95;16.55;;;14.90;99.90;;;;;;6125166;23;20029;-73
2022/10/21 10:43:30;;;;;;;25.08;16.45;;;14.90;99.90;;;;;;6123734;23;20022;-73
2022/10/21 10:46:01;;;;;;;22.48;14.77;;;14.90;99.90;;;;;;6149232;23;20064;-72
2022/10/21 10:48:33;;;;;;;24.90;14.85;;;14.90;99.90;;;;;;6148737;23;20036;-73
2022/10/21 10:50:59;;;;;;;21.95;15.13;;;14.90;99.90;;;;;;6129395;23;20017;-71
2022/10/21 10:53:32;;;;;;;21.88;14.93;;;15.00;99.90;;;;;;6169544;23;20077;-73
2022/10/21 10:56:25;;;;;;;19.17;13.23;;;14.90;99.90;;;;;;6140417;23;20036;-72
2022/10/21 10:59:03;;;;;;;22.50;14.52;;;15.00;99.90;;;;;;6161391;23;20029;-71
2022/10/21 11:01:38;;;;;;;25.42;14.52;;;15.00;99.90;;;;;;6151042;23;20108;-71
2022/10/21 11:04:17;;;;;;;25.33;14.93;;;15.10;99.90;;;;;;6148345;23;20029;-72
2022/10/21 11:06:49;;;;;;;21.48;13.43;;;15.10;99.90;;;;;;6120620;23;20056;-72
2022/10/21 11:09:16;;;;;;;19.95;13.40;;;15.00;99.90;;;;;;6148652;23;20029;-72
2022/10/21 11:11:47;;;;;;;19.10;13.32;;;15.10;99.90;;;;;;6144508;23;20088;-73
2022/10/21 11:14:16;;;;;;;19.35;14.57;;;15.20;99.90;;;;;;6147842;23;20217;-72
2022/10/21 11:17:17;;;;;;;17.92;12.48;;;15.10;99.90;;;;;;6147709;23;20013;-71
2022/10/21 11:19:59;;;;;;;19.77;11.50;;;15.10;99.90;;;;;;6148106;23;20049;-72
2022/10/21 11:22:57;;;;;;;20.92;13.38;;;15.20;99.90;;;;;;6132534;23;20057;-74
2022/10/21 11:25:29;;;;;;;21.33;12.95;;;15.20;99.90;;;;;;6148094;23;20028;-74
2022/10/21 11:28:10;;;;;;;21.17;10.40;;;15.30;99.90;;;;;;6148221;23;20059;-73
2022/10/21 11:31:00;;;;;;;15.15;10.07;;;15.40;99.90;;;;;;6147010;23;20048;-73
2022/10/21 11:33:53;;;;;;;15.05;9.60;;;15.40;99.90;;;;;;6149238;23;20022;-73
2022/10/21 11:36:48;;;;;;;17.13;10.23;;;15.40;99.90;;;;;;6122415;23;20619;-74
2022/10/21 11:39:22;;;;;;;15.38;9.10;;;15.50;99.90;;;;;;6147785;23;20095;-74
2022/10/21 11:41:55;;;;;;;17.77;9.40;;;15.50;99.90;;;;;;6149801;23;20025;-74
2022/10/21 11:44:36;;;;;;;16.45;9.73;;;15.60;99.90;;;;;;6145193;23;20041;-71
2022/10/21 11:47:26;;;;;;;16.27;10.40;;;15.60;99.90;;;;;;6149170;23;20025;-74
2022/10/21 11:50:07;;;;;;;13.68;9.18;;;15.60;99.90;;;;;;6148696;23;20024;-73
2022/10/21 11:53:08;;;;;;;15.98;9.70;;;15.60;99.90;;;;;;6121205;23;20026;-74
2022/10/21 11:56:06;;;;;;;14.75;10.45;;;15.60;99.90;;;;;;6147536;23;20028;-73
2022/10/21 11:58:44;;;;;;;15.88;8.90;;;15.60;99.90;;;;;;6146411;23;20021;-73
2022/10/21 12:01:26;;;;;;;15.85;9.43;;;15.70;99.90;;;;;;6143317;23;20028;-75
2022/10/21 12:04:36;;;;;;;13.17;8.40;;;15.60;99.90;;;;;;6096600;23;20025;-77
2022/10/21 12:07:11;;;;;;;21.40;11.02;;;15.60;99.90;;;;;;6143958;23;20064;-74
2022/10/21 12:09:53;;;;;;;18.48;9.07;;;15.80;99.90;;;;;;6146746;23;20021;-74
2022/10/21 12:12:31;;;;;;;20.67;9.25;;;15.70;99.90;;;;;;6148420;23;20029;-73
2022/10/21 12:15:02;;;;;;;17.75;10.23;;;15.80;99.90;;;;;;6148146;23;20033;-74
2022/10/21 12:17:32;;;;;;;14.00;9.07;;;15.80;99.90;;;;;;6146067;23;20156;-74
2022/10/21 12:20:12;;;;;;;16.33;8.75;;;15.80;99.90;;;;;;6147222;23;20068;-74
2022/10/21 12:22:39;;;;;;;15.45;8.93;;;15.80;99.90;;;;;;6149525;23;20017;-75
2022/10/21 12:25:23;;;;;;;15.88;9.07;;;15.90;99.90;;;;;;6146848;23;20025;-74
2022/10/21 12:27:48;;;;;;;;;;;16.00;99.90;;;;;;6147995;23;20017;-76
2022/10/21 12:30:32;;;;;;;20.75;9.07;;;16.00;99.90;;;;;;6147118;23;19921;-75
2022/10/21 12:33:16;;;;;;;18.02;8.93;;;16.10;99.90;;;;;;6147417;23;20033;-75
2022/10/21 12:35:45;;;;;;;16.70;8.93;;;16.10;99.90;;;;;;6147414;23;20242;-74
2022/10/21 12:38:55;;;;;;;13.27;8.00;;;16.30;99.90;;;;;;6149101;23;20026;-75
2022/10/21 12:41:24;;;;;;;12.75;8.20;;;16.30;99.90;;;;;;5999832;23;20199;-75
2022/10/21 12:44:02;;;;;;;17.95;9.13;;;16.50;99.90;;;;;;6118594;23;20041;-74
2022/10/21 12:46:32;;;;;;;14.48;8.77;;;16.60;99.90;;;;;;6146921;23;20029;-74
2022/10/21 12:49:03;;;;;;;13.07;8.00;;;16.70;99.90;;;;;;6121194;23;20089;-74
2022/10/21 12:51:52;;;;;;;13.63;7.95;;;16.80;99.90;;;;;;6145477;23;20108;-74